sensor_id;sensor_type;location;lat;lon;timestamp;temperature;humidity
55830;DHT22;41759;53.330;6.002;2023-09-30T00:01:43;13.60;99.90
55830;DHT22;41759;53.330;6.002;2023-09-30T00:04:09;13.60;99.90
55830;DHT22;41759;53.330;6.002;2023-09-30T00:06:35;13.60;99.90
55830;DHT22;41759;53.330;6.002;2023-09-30T00:09:01;13.60;99.90
55830;DHT22;41759;53.330;6.002;2023-09-30T00:11:27;13.50;99.90
55830;DHT22;41759;53.330;6.002;2023-09-30T00:13:53;13.50;99.90
55830;DHT22;41759;53.330;6.002;2023-09-30T00:16:19;13.50;99.90
55830;DHT22;41759;53.330;6.002;2023-09-30T00:18:45;13.50;99.90
55830;DHT22;41759;53.330;6.002;2023-09-30T00:21:12;13.50;99.90
55830;DHT22;41759;53.330;6.002;2023-09-30T00:23:37;13.50;99.90
55830;DHT22;41759;53.330;6.002;2023-09-30T00:26:03;13.50;99.90
55830;DHT22;41759;53.330;6.002;2023-09-30T00:28:30;13.50;99.90
55830;DHT22;41759;53.330;6.002;2023-09-30T00:30:56;13.40;99.90
55830;DHT22;41759;53.330;6.002;2023-09-30T00:33:22;13.40;99.90
55830;DHT22;41759;53.330;6.002;2023-09-30T00:35:48;13.40;99.90
55830;DHT22;41759;53.330;6.002;2023-09-30T00:38:14;13.40;99.90
55830;DHT22;41759;53.330;6.002;2023-09-30T00:40:49;13.40;99.90
55830;DHT22;41759;53.330;6.002;2023-09-30T00:43:20;13.40;99.90
55830;DHT22;41759;53.330;6.002;2023-09-30T00:45:51;13.30;99.90
55830;DHT22;41759;53.330;6.002;2023-09-30T00:48:20;13.30;99.90
55830;DHT22;41759;53.330;6.002;2023-09-30T00:50:45;13.30;99.90
55830;DHT22;41759;53.330;6.002;2023-09-30T00:53:11;13.30;99.90
55830;DHT22;41759;53.330;6.002;2023-09-30T00:55:37;13.30;99.90
55830;DHT22;41759;53.330;6.002;2023-09-30T00:58:04;13.30;99.90
55830;DHT22;41759;53.330;6.002;2023-09-30T01:00:30;13.30;99.90
55830;DHT22;41759;53.330;6.002;2023-09-30T01:02:56;13.30;99.90
55830;DHT22;41759;53.330;6.002;2023-09-30T01:05:25;13.30;99.90
55830;DHT22;41759;53.330;6.002;2023-09-30T01:07:50;13.20;99.90
55830;DHT22;41759;53.330;6.002;2023-09-30T01:10:16;13.20;99.90
55830;DHT22;41759;53.330;6.002;2023-09-30T01:12:42;13.10;99.90
55830;DHT22;41759;53.330;6.002;2023-09-30T01:15:08;13.20;99.90
55830;DHT22;41759;53.330;6.002;2023-09-30T01:17:34;13.20;99.90
55830;DHT22;41759;53.330;6.002;2023-09-30T01:20:01;13.20;99.90
55830;DHT22;41759;53.330;6.002;2023-09-30T01:22:30;13.20;99.90
55830;DHT22;41759;53.330;6.002;2023-09-30T01:24:56;13.30;99.90
55830;DHT22;41759;53.330;6.002;2023-09-30T01:27:21;13.20;99.90
55830;DHT22;41759;53.330;6.002;2023-09-30T01:29:47;13.30;99.90
55830;DHT22;41759;53.330;6.002;2023-09-30T01:32:15;13.20;99.90
55830;DHT22;41759;53.330;6.002;2023-09-30T01:34:41;13.20;99.90
55830;DHT22;41759;53.330;6.002;2023-09-30T01:37:06;13.20;99.90
55830;DHT22;41759;53.330;6.002;2023-09-30T01:39:32;13.20;99.90
55830;DHT22;41759;53.330;6.002;2023-09-30T01:41:59;13.20;99.90
55830;DHT22;41759;53.330;6.002;2023-09-30T01:44:25;13.20;99.90
55830;DHT22;41759;53.330;6.002;2023-09-30T01:46:51;13.20;99.90
55830;DHT22;41759;53.330;6.002;2023-09-30T01:49:17;13.20;99.90
55830;DHT22;41759;53.330;6.002;2023-09-30T01:51:45;13.10;99.90
55830;DHT22;41759;53.330;6.002;2023-09-30T01:54:11;13.20;99.90
55830;DHT22;41759;53.330;6.002;2023-09-30T01:56:37;13.20;99.90
55830;DHT22;41759;53.330;6.002;2023-09-30T01:59:02;13.20;99.90
55830;DHT22;41759;53.330;6.002;2023-09-30T02:01:28;13.20;99.90
55830;DHT22;41759;53.330;6.002;2023-09-30T02:03:54;13.20;99.90
55830;DHT22;41759;53.330;6.002;2023-09-30T02:06:20;13.20;99.90
55830;DHT22;41759;53.330;6.002;2023-09-30T02:08:45;13.20;99.90
55830;DHT22;41759;53.330;6.002;2023-09-30T02:11:11;13.20;99.90
55830;DHT22;41759;53.330;6.002;2023-09-30T02:13:40;13.20;99.90
55830;DHT22;41759;53.330;6.002;2023-09-30T02:16:11;13.10;99.90
55830;DHT22;41759;53.330;6.002;2023-09-30T02:18:38;13.10;99.90
55830;DHT22;41759;53.330;6.002;2023-09-30T02:21:03;13.10;99.90
55830;DHT22;41759;53.330;6.002;2023-09-30T02:23:29;13.20;99.90
55830;DHT22;41759;53.330;6.002;2023-09-30T02:25:55;13.20;99.90
55830;DHT22;41759;53.330;6.002;2023-09-30T02:28:21;13.20;99.90
55830;DHT22;41759;53.330;6.002;2023-09-30T02:30:46;13.20;99.90
55830;DHT22;41759;53.330;6.002;2023-09-30T02:33:12;13.20;99.90
55830;DHT22;41759;53.330;6.002;2023-09-30T02:35:38;13.20;99.90
55830;DHT22;41759;53.330;6.002;2023-09-30T02:38:08;13.20;99.90
55830;DHT22;41759;53.330;6.002;2023-09-30T02:40:35;13.20;99.90
55830;DHT22;41759;53.330;6.002;2023-09-30T02:43:00;13.20;99.90
55830;DHT22;41759;53.330;6.002;2023-09-30T02:45:26;13.10;99.90
55830;DHT22;41759;53.330;6.002;2023-09-30T02:47:52;13.20;99.90
55830;DHT22;41759;53.330;6.002;2023-09-30T02:50:17;13.20;99.90
55830;DHT22;41759;53.330;6.002;2023-09-30T02:52:43;13.20;99.90
55830;DHT22;41759;53.330;6.002;2023-09-30T02:55:10;13.20;99.90
55830;DHT22;41759;53.330;6.002;2023-09-30T02:57:36;13.20;99.90
55830;DHT22;41759;53.330;6.002;2023-09-30T03:00:04;13.10;99.90
55830;DHT22;41759;53.330;6.002;2023-09-30T03:02:50;14.10;99.90
55830;DHT22;41759;53.330;6.002;2023-09-30T03:05:17;13.10;99.90
55830;DHT22;41759;53.330;6.002;2023-09-30T03:07:43;13.20;99.90
55830;DHT22;41759;53.330;6.002;2023-09-30T03:10:09;13.10;99.90
55830;DHT22;41759;53.330;6.002;2023-09-30T03:12:35;13.20;99.90
55830;DHT22;41759;53.330;6.002;2023-09-30T03:15:01;13.20;99.90
55830;DHT22;41759;53.330;6.002;2023-09-30T03:17:33;13.10;99.90
55830;DHT22;41759;53.330;6.002;2023-09-30T03:20:00;13.10;99.90
55830;DHT22;41759;53.330;6.002;2023-09-30T03:22:26;13.10;99.90
55830;DHT22;41759;53.330;6.002;2023-09-30T03:24:54;13.10;99.90
55830;DHT22;41759;53.330;6.002;2023-09-30T03:27:20;13.10;99.90
55830;DHT22;41759;53.330;6.002;2023-09-30T03:29:46;13.10;99.90
55830;DHT22;41759;53.330;6.002;2023-09-30T03:32:12;13.10;99.90
55830;DHT22;41759;53.330;6.002;2023-09-30T03:34:38;13.10;99.90
55830;DHT22;41759;53.330;6.002;2023-09-30T03:37:05;13.10;99.90
55830;DHT22;41759;53.330;6.002;2023-09-30T03:39:35;13.10;99.90
55830;DHT22;41759;53.330;6.002;2023-09-30T03:42:01;13.00;99.90
55830;DHT22;41759;53.330;6.002;2023-09-30T03:44:28;13.00;99.90
55830;DHT22;41759;53.330;6.002;2023-09-30T03:46:54;13.00;99.90
55830;DHT22;41759;53.330;6.002;2023-09-30T03:49:20;13.00;99.90
55830;DHT22;41759;53.330;6.002;2023-09-30T03:51:46;13.00;99.90
55830;DHT22;41759;53.330;6.002;2023-09-30T03:54:12;12.90;99.90
55830;DHT22;41759;53.330;6.002;2023-09-30T03:56:38;12.90;99.90
55830;DHT22;41759;53.330;6.002;2023-09-30T03:59:07;12.90;99.90
55830;DHT22;41759;53.330;6.002;2023-09-30T04:01:34;12.90;99.90
55830;DHT22;41759;53.330;6.002;2023-09-30T04:04:00;12.90;99.90
55830;DHT22;41759;53.330;6.002;2023-09-30T04:06:26;12.90;99.90
55830;DHT22;41759;53.330;6.002;2023-09-30T04:08:52;12.90;99.90
55830;DHT22;41759;53.330;6.002;2023-09-30T04:11:17;12.90;99.90
55830;DHT22;41759;53.330;6.002;2023-09-30T04:13:44;12.90;99.90
55830;DHT22;41759;53.330;6.002;2023-09-30T04:16:10;12.90;99.90
55830;DHT22;41759;53.330;6.002;2023-09-30T04:18:36;13.00;99.90
55830;DHT22;41759;53.330;6.002;2023-09-30T04:21:04;13.00;99.90
55830;DHT22;41759;53.330;6.002;2023-09-30T04:23:30;13.00;99.90
55830;DHT22;41759;53.330;6.002;2023-09-30T04:25:57;12.90;99.90
55830;DHT22;41759;53.330;6.002;2023-09-30T04:28:22;12.90;99.90
55830;DHT22;41759;53.330;6.002;2023-09-30T04:30:49;12.90;99.90
55830;DHT22;41759;53.330;6.002;2023-09-30T04:33:18;12.90;99.90
55830;DHT22;41759;53.330;6.002;2023-09-30T04:35:47;12.90;99.90
55830;DHT22;41759;53.330;6.002;2023-09-30T04:38:13;12.90;99.90
55830;DHT22;41759;53.330;6.002;2023-09-30T04:40:38;12.90;99.90
55830;DHT22;41759;53.330;6.002;2023-09-30T04:43:04;12.90;99.90
55830;DHT22;41759;53.330;6.002;2023-09-30T04:45:31;12.90;99.90
55830;DHT22;41759;53.330;6.002;2023-09-30T04:47:57;12.90;99.90
55830;DHT22;41759;53.330;6.002;2023-09-30T04:50:22;12.90;99.90
55830;DHT22;41759;53.330;6.002;2023-09-30T04:52:48;12.90;99.90
55830;DHT22;41759;53.330;6.002;2023-09-30T04:55:15;12.70;99.90
55830;DHT22;41759;53.330;6.002;2023-09-30T04:57:45;12.90;99.90
55830;DHT22;41759;53.330;6.002;2023-09-30T05:00:14;12.90;99.90
55830;DHT22;41759;53.330;6.002;2023-09-30T05:02:39;12.90;99.90
55830;DHT22;41759;53.330;6.002;2023-09-30T05:05:06;12.80;99.90
55830;DHT22;41759;53.330;6.002;2023-09-30T05:07:32;12.80;99.90
55830;DHT22;41759;53.330;6.002;2023-09-30T05:09:58;12.80;99.90
55830;DHT22;41759;53.330;6.002;2023-09-30T05:12:25;12.80;99.90
55830;DHT22;41759;53.330;6.002;2023-09-30T05:14:51;12.70;99.90
55830;DHT22;41759;53.330;6.002;2023-09-30T05:17:17;12.70;99.90
55830;DHT22;41759;53.330;6.002;2023-09-30T05:19:43;12.80;99.90
55830;DHT22;41759;53.330;6.002;2023-09-30T05:22:10;12.70;99.90
55830;DHT22;41759;53.330;6.002;2023-09-30T05:24:35;12.70;99.90
55830;DHT22;41759;53.330;6.002;2023-09-30T05:27:01;12.70;99.90
55830;DHT22;41759;53.330;6.002;2023-09-30T05:29:28;12.70;99.90
55830;DHT22;41759;53.330;6.002;2023-09-30T05:31:54;12.70;99.90
55830;DHT22;41759;53.330;6.002;2023-09-30T05:34:19;12.60;99.90
55830;DHT22;41759;53.330;6.002;2023-09-30T05:36:45;12.70;99.90
55830;DHT22;41759;53.330;6.002;2023-09-30T05:39:11;12.60;99.90
55830;DHT22;41759;53.330;6.002;2023-09-30T05:41:38;12.60;99.90
55830;DHT22;41759;53.330;6.002;2023-09-30T05:44:04;12.60;99.90
55830;DHT22;41759;53.330;6.002;2023-09-30T05:46:30;12.60;99.90
55830;DHT22;41759;53.330;6.002;2023-09-30T05:48:56;12.50;99.90
55830;DHT22;41759;53.330;6.002;2023-09-30T05:51:22;12.50;99.90
55830;DHT22;41759;53.330;6.002;2023-09-30T05:53:48;12.50;99.90
55830;DHT22;41759;53.330;6.002;2023-09-30T05:56:14;12.50;99.90
55830;DHT22;41759;53.330;6.002;2023-09-30T05:58:43;12.50;99.90
55830;DHT22;41759;53.330;6.002;2023-09-30T06:01:09;12.50;99.90
55830;DHT22;41759;53.330;6.002;2023-09-30T06:03:38;12.50;99.90
55830;DHT22;41759;53.330;6.002;2023-09-30T06:06:12;12.50;99.90
55830;DHT22;41759;53.330;6.002;2023-09-30T06:08:38;12.50;99.90
55830;DHT22;41759;53.330;6.002;2023-09-30T06:11:04;12.60;99.90
55830;DHT22;41759;53.330;6.002;2023-09-30T06:13:31;12.50;99.90
55830;DHT22;41759;53.330;6.002;2023-09-30T06:15:58;12.60;99.90
55830;DHT22;41759;53.330;6.002;2023-09-30T06:18:24;12.60;99.90
55830;DHT22;41759;53.330;6.002;2023-09-30T06:20:49;12.60;99.90
55830;DHT22;41759;53.330;6.002;2023-09-30T06:23:16;12.60;99.90
55830;DHT22;41759;53.330;6.002;2023-09-30T06:25:42;12.60;99.90
55830;DHT22;41759;53.330;6.002;2023-09-30T06:28:08;12.60;99.90
55830;DHT22;41759;53.330;6.002;2023-09-30T06:30:34;12.60;99.90
55830;DHT22;41759;53.330;6.002;2023-09-30T06:33:00;12.60;99.90
55830;DHT22;41759;53.330;6.002;2023-09-30T06:35:27;12.70;99.90
55830;DHT22;41759;53.330;6.002;2023-09-30T06:37:53;12.70;99.90
55830;DHT22;41759;53.330;6.002;2023-09-30T06:40:19;12.80;99.90
55830;DHT22;41759;53.330;6.002;2023-09-30T06:42:45;12.90;99.90
55830;DHT22;41759;53.330;6.002;2023-09-30T06:45:11;13.00;99.90
55830;DHT22;41759;53.330;6.002;2023-09-30T06:47:40;13.10;99.90
55830;DHT22;41759;53.330;6.002;2023-09-30T06:50:11;13.20;99.90
55830;DHT22;41759;53.330;6.002;2023-09-30T06:52:42;13.20;99.90
55830;DHT22;41759;53.330;6.002;2023-09-30T06:55:08;13.20;99.90
55830;DHT22;41759;53.330;6.002;2023-09-30T06:57:35;13.20;99.90
55830;DHT22;41759;53.330;6.002;2023-09-30T07:02:35;13.30;99.90
55830;DHT22;41759;53.330;6.002;2023-09-30T07:05:05;13.30;99.90
55830;DHT22;41759;53.330;6.002;2023-09-30T07:07:30;13.30;99.90
55830;DHT22;41759;53.330;6.002;2023-09-30T07:09:56;13.30;99.90
55830;DHT22;41759;53.330;6.002;2023-09-30T07:12:22;13.30;99.90
55830;DHT22;41759;53.330;6.002;2023-09-30T07:14:48;13.10;99.90
55830;DHT22;41759;53.330;6.002;2023-09-30T07:17:13;13.30;99.90
55830;DHT22;41759;53.330;6.002;2023-09-30T07:19:39;13.30;99.90
55830;DHT22;41759;53.330;6.002;2023-09-30T07:22:05;13.30;99.90
55830;DHT22;41759;53.330;6.002;2023-09-30T07:24:31;13.30;99.90
55830;DHT22;41759;53.330;6.002;2023-09-30T07:26:57;13.30;99.90
55830;DHT22;41759;53.330;6.002;2023-09-30T07:29:23;13.30;99.90
55830;DHT22;41759;53.330;6.002;2023-09-30T07:31:49;13.40;99.90
55830;DHT22;41759;53.330;6.002;2023-09-30T07:34:16;13.40;99.90
55830;DHT22;41759;53.330;6.002;2023-09-30T07:36:43;13.50;99.90
55830;DHT22;41759;53.330;6.002;2023-09-30T07:39:09;13.70;99.90
55830;DHT22;41759;53.330;6.002;2023-09-30T07:41:35;13.80;99.90
55830;DHT22;41759;53.330;6.002;2023-09-30T07:44:04;13.90;99.90
55830;DHT22;41759;53.330;6.002;2023-09-30T07:46:31;14.00;99.90
55830;DHT22;41759;53.330;6.002;2023-09-30T07:48:56;14.20;99.90
55830;DHT22;41759;53.330;6.002;2023-09-30T07:51:24;14.30;99.90
55830;DHT22;41759;53.330;6.002;2023-09-30T07:53:50;14.50;99.90
55830;DHT22;41759;53.330;6.002;2023-09-30T07:56:16;14.60;99.90
55830;DHT22;41759;53.330;6.002;2023-09-30T07:58:42;14.70;99.90
55830;DHT22;41759;53.330;6.002;2023-09-30T08:01:08;14.90;99.90
55830;DHT22;41759;53.330;6.002;2023-09-30T08:03:34;14.90;99.90
55830;DHT22;41759;53.330;6.002;2023-09-30T08:06:00;15.00;99.90
55830;DHT22;41759;53.330;6.002;2023-09-30T08:08:26;15.10;99.90
55830;DHT22;41759;53.330;6.002;2023-09-30T08:10:52;15.20;99.90
55830;DHT22;41759;53.330;6.002;2023-09-30T08:13:22;15.30;99.90
55830;DHT22;41759;53.330;6.002;2023-09-30T08:15:50;15.40;99.90
55830;DHT22;41759;53.330;6.002;2023-09-30T08:18:16;15.50;99.90
55830;DHT22;41759;53.330;6.002;2023-09-30T08:20:42;15.50;99.90
55830;DHT22;41759;53.330;6.002;2023-09-30T08:23:08;15.60;99.90
55830;DHT22;41759;53.330;6.002;2023-09-30T08:25:34;15.70;99.90
55830;DHT22;41759;53.330;6.002;2023-09-30T08:28:00;15.80;99.90
55830;DHT22;41759;53.330;6.002;2023-09-30T08:30:26;15.90;99.90
55830;DHT22;41759;53.330;6.002;2023-09-30T08:32:51;16.00;99.90
55830;DHT22;41759;53.330;6.002;2023-09-30T08:35:17;16.10;99.90
55830;DHT22;41759;53.330;6.002;2023-09-30T08:37:43;16.20;99.90
55830;DHT22;41759;53.330;6.002;2023-09-30T08:40:09;16.30;99.90
55830;DHT22;41759;53.330;6.002;2023-09-30T08:42:35;16.40;99.90
55830;DHT22;41759;53.330;6.002;2023-09-30T08:45:02;16.50;99.90
55830;DHT22;41759;53.330;6.002;2023-09-30T08:47:29;16.50;99.90
55830;DHT22;41759;53.330;6.002;2023-09-30T08:49:57;16.60;99.90
55830;DHT22;41759;53.330;6.002;2023-09-30T08:52:32;16.70;99.90
55830;DHT22;41759;53.330;6.002;2023-09-30T08:54:58;16.70;99.90
55830;DHT22;41759;53.330;6.002;2023-09-30T08:57:24;16.90;99.90
55830;DHT22;41759;53.330;6.002;2023-09-30T08:59:52;16.90;99.90
55830;DHT22;41759;53.330;6.002;2023-09-30T09:02:18;17.00;99.90
55830;DHT22;41759;53.330;6.002;2023-09-30T09:04:47;17.10;99.90
55830;DHT22;41759;53.330;6.002;2023-09-30T09:07:14;17.10;99.90
55830;DHT22;41759;53.330;6.002;2023-09-30T09:10:02;17.20;99.90
55830;DHT22;41759;53.330;6.002;2023-09-30T09:12:28;17.30;99.90
55830;DHT22;41759;53.330;6.002;2023-09-30T09:14:54;16.70;99.90
55830;DHT22;41759;53.330;6.002;2023-09-30T09:17:20;17.40;99.90
55830;DHT22;41759;53.330;6.002;2023-09-30T09:20:00;17.50;99.90
55830;DHT22;41759;53.330;6.002;2023-09-30T09:22:38;17.50;99.90
55830;DHT22;41759;53.330;6.002;2023-09-30T09:25:05;17.50;99.90
55830;DHT22;41759;53.330;6.002;2023-09-30T09:27:33;17.60;99.90
55830;DHT22;41759;53.330;6.002;2023-09-30T09:32:59;17.70;99.90
55830;DHT22;41759;53.330;6.002;2023-09-30T09:35:26;17.60;99.90
55830;DHT22;41759;53.330;6.002;2023-09-30T09:40:29;17.70;99.90
55830;DHT22;41759;53.330;6.002;2023-09-30T09:42:56;17.70;99.90
55830;DHT22;41759;53.330;6.002;2023-09-30T09:45:23;17.70;99.90
55830;DHT22;41759;53.330;6.002;2023-09-30T09:47:49;17.80;99.90
55830;DHT22;41759;53.330;6.002;2023-09-30T09:50:18;17.90;99.90
55830;DHT22;41759;53.330;6.002;2023-09-30T09:52:50;17.90;99.90
55830;DHT22;41759;53.330;6.002;2023-09-30T09:55:21;18.00;99.90
55830;DHT22;41759;53.330;6.002;2023-09-30T09:57:48;18.00;99.90
55830;DHT22;41759;53.330;6.002;2023-09-30T10:00:19;18.00;99.90
55830;DHT22;41759;53.330;6.002;2023-09-30T10:02:46;18.10;99.90
55830;DHT22;41759;53.330;6.002;2023-09-30T10:05:14;18.10;99.90
55830;DHT22;41759;53.330;6.002;2023-09-30T10:07:51;18.10;99.90
55830;DHT22;41759;53.330;6.002;2023-09-30T10:10:19;18.10;99.90
55830;DHT22;41759;53.330;6.002;2023-09-30T10:12:45;18.10;99.90
55830;DHT22;41759;53.330;6.002;2023-09-30T10:18:03;18.20;99.90
55830;DHT22;41759;53.330;6.002;2023-09-30T10:20:31;18.30;99.90
55830;DHT22;41759;53.330;6.002;2023-09-30T10:23:29;18.30;99.90
55830;DHT22;41759;53.330;6.002;2023-09-30T10:31:16;18.20;99.90
55830;DHT22;41759;53.330;6.002;2023-09-30T10:36:31;18.00;99.90
55830;DHT22;41759;53.330;6.002;2023-09-30T10:39:00;18.00;99.90
55830;DHT22;41759;53.330;6.002;2023-09-30T10:49:46;17.90;99.90
55830;DHT22;41759;53.330;6.002;2023-09-30T10:52:21;17.80;99.90
55830;DHT22;41759;53.330;6.002;2023-09-30T10:54:49;17.80;99.90
55830;DHT22;41759;53.330;6.002;2023-09-30T10:57:26;17.70;99.90
55830;DHT22;41759;53.330;6.002;2023-09-30T11:00:12;17.80;99.90
55830;DHT22;41759;53.330;6.002;2023-09-30T11:02:50;17.80;99.90
55830;DHT22;41759;53.330;6.002;2023-09-30T11:05:17;17.90;99.90
55830;DHT22;41759;53.330;6.002;2023-09-30T11:07:46;18.00;99.90
55830;DHT22;41759;53.330;6.002;2023-09-30T11:10:16;18.00;99.90
55830;DHT22;41759;53.330;6.002;2023-09-30T11:12:54;18.00;99.90
55830;DHT22;41759;53.330;6.002;2023-09-30T11:15:20;18.10;99.90
55830;DHT22;41759;53.330;6.002;2023-09-30T11:17:46;18.10;99.90
55830;DHT22;41759;53.330;6.002;2023-09-30T11:20:11;18.20;99.90
55830;DHT22;41759;53.330;6.002;2023-09-30T11:22:37;18.20;99.90
55830;DHT22;41759;53.330;6.002;2023-09-30T11:25:05;18.30;99.90
55830;DHT22;41759;53.330;6.002;2023-09-30T11:27:31;18.30;99.90
55830;DHT22;41759;53.330;6.002;2023-09-30T11:29:57;18.20;99.90
55830;DHT22;41759;53.330;6.002;2023-09-30T11:32:27;18.20;99.90
55830;DHT22;41759;53.330;6.002;2023-09-30T11:34:54;18.20;99.90
55830;DHT22;41759;53.330;6.002;2023-09-30T11:37:20;18.20;99.90
55830;DHT22;41759;53.330;6.002;2023-09-30T11:39:47;18.10;99.90
55830;DHT22;41759;53.330;6.002;2023-09-30T11:42:17;18.20;99.90
55830;DHT22;41759;53.330;6.002;2023-09-30T11:44:47;18.20;99.90
55830;DHT22;41759;53.330;6.002;2023-09-30T11:47:14;18.20;99.90
55830;DHT22;41759;53.330;6.002;2023-09-30T11:49:42;18.20;99.90
55830;DHT22;41759;53.330;6.002;2023-09-30T11:52:12;18.10;99.90
55830;DHT22;41759;53.330;6.002;2023-09-30T11:54:43;18.10;99.90
55830;DHT22;41759;53.330;6.002;2023-09-30T11:57:14;18.10;99.90
55830;DHT22;41759;53.330;6.002;2023-09-30T11:59:41;18.10;99.90
55830;DHT22;41759;53.330;6.002;2023-09-30T12:02:11;18.10;99.90
55830;DHT22;41759;53.330;6.002;2023-09-30T12:04:38;18.10;99.90
55830;DHT22;41759;53.330;6.002;2023-09-30T12:07:04;18.10;99.90
55830;DHT22;41759;53.330;6.002;2023-09-30T12:09:35;18.20;99.90
55830;DHT22;41759;53.330;6.002;2023-09-30T12:12:03;18.20;99.90
55830;DHT22;41759;53.330;6.002;2023-09-30T12:14:29;18.30;99.90
55830;DHT22;41759;53.330;6.002;2023-09-30T12:16:57;18.40;99.90
55830;DHT22;41759;53.330;6.002;2023-09-30T12:19:22;18.40;99.90
55830;DHT22;41759;53.330;6.002;2023-09-30T12:21:48;18.30;99.90
55830;DHT22;41759;53.330;6.002;2023-09-30T12:24:15;18.20;99.90
55830;DHT22;41759;53.330;6.002;2023-09-30T12:26:50;18.10;99.90
55830;DHT22;41759;53.330;6.002;2023-09-30T12:29:21;18.10;99.90
55830;DHT22;41759;53.330;6.002;2023-09-30T12:31:53;18.00;99.90
55830;DHT22;41759;53.330;6.002;2023-09-30T12:34:19;18.00;99.90
55830;DHT22;41759;53.330;6.002;2023-09-30T12:36:45;18.00;99.90
55830;DHT22;41759;53.330;6.002;2023-09-30T12:39:11;18.00;99.90
55830;DHT22;41759;53.330;6.002;2023-09-30T12:41:41;18.00;99.90
55830;DHT22;41759;53.330;6.002;2023-09-30T12:44:08;18.00;99.90
55830;DHT22;41759;53.330;6.002;2023-09-30T12:46:34;18.00;99.90
55830;DHT22;41759;53.330;6.002;2023-09-30T12:49:03;18.00;99.90
55830;DHT22;41759;53.330;6.002;2023-09-30T12:51:29;18.00;99.90
55830;DHT22;41759;53.330;6.002;2023-09-30T12:53:55;18.00;99.90
55830;DHT22;41759;53.330;6.002;2023-09-30T12:56:21;18.10;99.90
55830;DHT22;41759;53.330;6.002;2023-09-30T12:58:47;18.10;99.90
55830;DHT22;41759;53.330;6.002;2023-09-30T13:01:12;18.10;99.90
55830;DHT22;41759;53.330;6.002;2023-09-30T13:03:38;18.20;99.90
55830;DHT22;41759;53.330;6.002;2023-09-30T13:06:04;18.10;99.90
55830;DHT22;41759;53.330;6.002;2023-09-30T13:08:30;18.00;99.90
55830;DHT22;41759;53.330;6.002;2023-09-30T13:11:00;18.10;99.90
55830;DHT22;41759;53.330;6.002;2023-09-30T13:13:28;18.00;99.90
55830;DHT22;41759;53.330;6.002;2023-09-30T13:15:57;18.00;99.90
55830;DHT22;41759;53.330;6.002;2023-09-30T13:18:23;18.10;99.90
55830;DHT22;41759;53.330;6.002;2023-09-30T13:20:48;18.00;99.90
55830;DHT22;41759;53.330;6.002;2023-09-30T13:23:14;18.00;99.90
55830;DHT22;41759;53.330;6.002;2023-09-30T13:25:40;18.00;99.90
55830;DHT22;41759;53.330;6.002;2023-09-30T13:28:05;18.00;99.90
55830;DHT22;41759;53.330;6.002;2023-09-30T13:30:31;18.00;99.90
55830;DHT22;41759;53.330;6.002;2023-09-30T13:32:57;18.00;99.90
55830;DHT22;41759;53.330;6.002;2023-09-30T13:35:23;18.00;99.90
55830;DHT22;41759;53.330;6.002;2023-09-30T13:37:49;18.00;99.90
55830;DHT22;41759;53.330;6.002;2023-09-30T13:40:15;18.00;99.90
55830;DHT22;41759;53.330;6.002;2023-09-30T13:42:41;18.10;99.90
55830;DHT22;41759;53.330;6.002;2023-09-30T13:45:08;18.00;99.90
55830;DHT22;41759;53.330;6.002;2023-09-30T13:47:35;18.00;99.90
55830;DHT22;41759;53.330;6.002;2023-09-30T13:50:01;18.10;99.90
55830;DHT22;41759;53.330;6.002;2023-09-30T13:52:29;18.10;99.90
55830;DHT22;41759;53.330;6.002;2023-09-30T13:54:55;18.10;99.90
55830;DHT22;41759;53.330;6.002;2023-09-30T13:57:21;18.10;99.90
55830;DHT22;41759;53.330;6.002;2023-09-30T13:59:47;18.10;99.90
55830;DHT22;41759;53.330;6.002;2023-09-30T14:02:14;18.10;99.90
55830;DHT22;41759;53.330;6.002;2023-09-30T14:04:40;18.10;99.90
55830;DHT22;41759;53.330;6.002;2023-09-30T14:07:05;18.00;99.90
55830;DHT22;41759;53.330;6.002;2023-09-30T14:09:33;18.00;99.90
55830;DHT22;41759;53.330;6.002;2023-09-30T14:11:59;18.00;99.90
55830;DHT22;41759;53.330;6.002;2023-09-30T14:14:26;17.90;99.90
55830;DHT22;41759;53.330;6.002;2023-09-30T14:16:51;18.00;99.90
55830;DHT22;41759;53.330;6.002;2023-09-30T14:19:17;18.00;99.90
55830;DHT22;41759;53.330;6.002;2023-09-30T14:21:43;17.90;99.90
55830;DHT22;41759;53.330;6.002;2023-09-30T14:24:11;18.00;99.90
55830;DHT22;41759;53.330;6.002;2023-09-30T14:26:37;17.90;99.90
55830;DHT22;41759;53.330;6.002;2023-09-30T14:29:03;17.90;99.90
55830;DHT22;41759;53.330;6.002;2023-09-30T14:31:29;17.90;99.90
55830;DHT22;41759;53.330;6.002;2023-09-30T14:33:55;17.90;99.90
55830;DHT22;41759;53.330;6.002;2023-09-30T14:36:20;17.90;99.90
55830;DHT22;41759;53.330;6.002;2023-09-30T14:38:48;17.90;99.90
55830;DHT22;41759;53.330;6.002;2023-09-30T14:41:15;17.80;99.90
55830;DHT22;41759;53.330;6.002;2023-09-30T14:43:41;17.80;99.90
55830;DHT22;41759;53.330;6.002;2023-09-30T14:46:07;17.80;99.90
55830;DHT22;41759;53.330;6.002;2023-09-30T14:48:35;17.80;99.90
55830;DHT22;41759;53.330;6.002;2023-09-30T14:51:01;17.80;99.90
55830;DHT22;41759;53.330;6.002;2023-09-30T14:53:31;17.80;99.90
55830;DHT22;41759;53.330;6.002;2023-09-30T14:55:57;17.80;99.90
55830;DHT22;41759;53.330;6.002;2023-09-30T14:58:22;17.70;99.90
55830;DHT22;41759;53.330;6.002;2023-09-30T15:00:49;17.70;99.90
55830;DHT22;41759;53.330;6.002;2023-09-30T15:03:14;17.70;99.90
55830;DHT22;41759;53.330;6.002;2023-09-30T15:05:40;17.70;99.90
55830;DHT22;41759;53.330;6.002;2023-09-30T15:08:06;17.60;99.90
55830;DHT22;41759;53.330;6.002;2023-09-30T15:10:34;17.60;99.90
55830;DHT22;41759;53.330;6.002;2023-09-30T15:13:01;17.60;99.90
55830;DHT22;41759;53.330;6.002;2023-09-30T15:15:27;17.50;99.90
55830;DHT22;41759;53.330;6.002;2023-09-30T15:17:53;17.50;99.90
55830;DHT22;41759;53.330;6.002;2023-09-30T15:20:20;17.50;99.90
55830;DHT22;41759;53.330;6.002;2023-09-30T15:22:46;17.50;99.90
55830;DHT22;41759;53.330;6.002;2023-09-30T15:25:12;17.40;99.90
55830;DHT22;41759;53.330;6.002;2023-09-30T15:27:38;17.40;99.90
55830;DHT22;41759;53.330;6.002;2023-09-30T15:30:04;17.40;99.90
55830;DHT22;41759;53.330;6.002;2023-09-30T15:32:33;17.30;99.90
55830;DHT22;41759;53.330;6.002;2023-09-30T15:34:59;17.30;99.90
55830;DHT22;41759;53.330;6.002;2023-09-30T15:37:25;17.30;99.90
55830;DHT22;41759;53.330;6.002;2023-09-30T15:39:50;17.30;99.90
55830;DHT22;41759;53.330;6.002;2023-09-30T15:42:16;17.30;99.90
55830;DHT22;41759;53.330;6.002;2023-09-30T15:44:42;17.20;99.90
55830;DHT22;41759;53.330;6.002;2023-09-30T15:47:08;17.20;99.90
55830;DHT22;41759;53.330;6.002;2023-09-30T15:49:35;17.10;99.90
55830;DHT22;41759;53.330;6.002;2023-09-30T15:52:01;17.10;99.90
55830;DHT22;41759;53.330;6.002;2023-09-30T15:54:27;17.10;99.90
55830;DHT22;41759;53.330;6.002;2023-09-30T15:56:53;17.00;99.90